Time;durP1;ratioP1;P1;durP2;ratioP2;P2;SDS_P1;SDS_P2;PMS_P1;PMS_P2;Temp;Humidity;BMP_temperature;BMP_pressure;BME280_temperature;BME280_humidity;BME280_pressure;Samples;Min_cycle;Max_cycle;Signal;HPM_P1;HPM_P2
2023/07/21 00:00:15;;;;;;;;;10.67;10.67;;;;;-147.70;100.00;61350.09;5065273;28;47124;-68
2023/07/21 00:02:41;;;;;;;;;11.67;11.33;;;;;-147.70;100.00;61350.09;5065437;28;45460;-68
2023/07/21 00:05:07;;;;;;;;;11.67;11.67;;;;;-147.70;100.00;61350.09;5066366;28;45406;-68
2023/07/21 00:07:35;;;;;;;;;11.67;7.00;;;;;-147.70;100.00;61350.09;5062120;28;45492;-67
2023/07/21 00:10:07;;;;;;;;;11.00;11.00;;;;;-147.70;100.00;61350.09;5062785;28;46554;-68
2023/07/21 00:12:33;;;;;;;;;9.67;9.67;;;;;-147.70;100.00;61350.09;5074178;28;46223;-68
2023/07/21 00:14:58;;;;;;;;;22.00;22.00;;;;;-147.70;100.00;61350.09;5074619;28;45427;-67
2023/07/21 00:17:25;;;;;;;;;6.33;6.00;;;;;-147.70;100.00;61350.09;5075154;28;45341;-67
2023/07/21 00:19:51;;;;;;;;;11.67;10.33;;;;;-147.70;100.00;61350.09;5074542;28;46380;-67
2023/07/21 00:22:16;;;;;;;;;9.67;7.67;;;;;-147.70;100.00;61350.09;5074731;28;45621;-68
2023/07/21 00:24:42;;;;;;;;;13.33;12.00;;;;;-147.70;100.00;61350.09;5075100;28;45528;-67
2023/07/21 00:27:07;;;;;;;;;9.33;8.33;;;;;-147.70;100.00;61350.09;5075433;28;45455;-67
2023/07/21 00:29:32;;;;;;;;;10.33;10.33;;;;;-147.70;100.00;61350.09;5078228;28;45471;-68
2023/07/21 00:31:58;;;;;;;;;11.00;9.67;;;;;-147.70;100.00;61350.09;5069635;28;46363;-67
2023/07/21 00:34:24;;;;;;;;;10.00;9.00;;;;;-147.70;100.00;61350.09;5067091;28;45611;-68
2023/07/21 00:36:52;;;;;;;;;11.33;10.33;;;;;-147.70;100.00;61350.09;5069751;28;45523;-67
2023/07/21 00:39:17;;;;;;;;;10.00;9.67;;;;;-147.70;100.00;61350.09;5075721;28;46488;-68
2023/07/21 00:41:43;;;;;;;;;12.67;11.00;;;;;-147.70;100.00;61350.09;5070789;28;45484;-67
2023/07/21 00:44:09;;;;;;;;;10.00;10.00;;;;;-147.70;100.00;61350.09;5074076;28;45569;-68
2023/07/21 00:46:35;;;;;;;;;14.00;12.00;;;;;-147.70;100.00;61350.09;5067929;28;45396;-67
2023/07/21 00:49:02;;;;;;;;;11.00;11.00;;;;;-147.70;100.00;61350.09;5063022;28;45561;-67
2023/07/21 00:51:27;;;;;;;;;9.00;9.00;;;;;-147.70;100.00;61350.09;5069106;28;45393;-66
2023/07/21 00:53:54;;;;;;;;;12.67;12.33;;;;;-147.70;100.00;61350.09;5068579;28;45507;-67
2023/07/21 00:56:19;;;;;;;;;14.00;12.33;;;;;-147.70;100.00;61350.09;5067884;28;45171;-68
2023/07/21 00:58:44;;;;;;;;;12.33;12.00;;;;;-147.70;100.00;61350.09;5065047;28;46653;-67
2023/07/21 01:01:13;;;;;;;;;13.67;11.67;;;;;-147.70;100.00;61350.09;5069520;28;45368;-67
2023/07/21 01:03:39;;;;;;;;;18.00;13.67;;;;;-147.70;100.00;61350.09;5065051;28;45381;-67
2023/07/21 01:06:07;;;;;;;;;19.67;12.67;;;;;-147.70;100.00;61350.09;5070539;28;45565;-67
2023/07/21 01:08:33;;;;;;;;;14.00;13.00;;;;;-147.70;100.00;61350.09;5069864;28;46293;-67
2023/07/21 01:11:00;;;;;;;;;15.67;13.00;;;;;-147.70;100.00;61350.09;5078571;28;45443;-68
2023/07/21 01:13:27;;;;;;;;;11.67;9.67;;;;;-147.70;100.00;61350.09;5079151;28;45432;-67
2023/07/21 01:15:55;;;;;;;;;17.00;14.67;;;;;-147.70;100.00;61350.09;5079027;28;45448;-67
2023/07/21 01:18:22;;;;;;;;;14.00;11.67;;;;;-147.70;100.00;61350.09;5075608;28;46277;-67
2023/07/21 01:20:49;;;;;;;;;14.33;12.33;;;;;-147.70;100.00;61350.09;5075023;28;45408;-67
2023/07/21 01:23:44;;;;;;;;;16.33;14.33;;;;;-147.70;100.00;61350.09;5066416;28;45488;-67
2023/07/21 01:26:11;;;;;;;;;11.33;11.33;;;;;-147.70;100.00;61350.09;5067316;28;45346;-67
2023/07/21 01:28:40;;;;;;;;;13.33;9.33;;;;;-147.70;100.00;61350.09;5068180;28;46081;-67
2023/07/21 01:31:06;;;;;;;;;10.67;10.33;;;;;-147.70;100.00;61350.09;5067862;28;45500;-67
2023/07/21 01:33:32;;;;;;;;;14.00;12.33;;;;;-147.70;100.00;61350.09;5074714;28;45409;-67
2023/07/21 01:36:00;;;;;;;;;11.67;11.00;;;;;-147.70;100.00;61350.09;5067088;28;45610;-68
2023/07/21 01:38:27;;;;;;;;;12.67;12.00;;;;;-147.70;100.00;61350.09;5065335;28;46093;-67
2023/07/21 01:40:53;;;;;;;;;15.67;13.00;;;;;-147.70;100.00;61350.09;5067884;28;45369;-67
2023/07/21 01:43:19;;;;;;;;;15.00;12.67;;;;;-147.70;100.00;61350.09;5068029;28;45325;-67
2023/07/21 01:45:45;;;;;;;;;11.33;11.33;;;;;-147.70;100.00;61350.09;5067442;28;45705;-67
2023/07/21 01:48:10;;;;;;;;;13.33;12.00;;;;;-147.70;100.00;61350.09;5068357;28;46019;-67
2023/07/21 01:50:39;;;;;;;;;15.67;15.00;;;;;-147.70;100.00;61350.09;5072241;28;45394;-67
2023/07/21 01:53:09;;;;;;;;;14.67;12.67;;;;;-147.70;100.00;61350.09;5074942;28;45409;-67
2023/07/21 01:55:46;;;;;;;;;15.67;12.67;;;;;-147.70;100.00;61350.09;5073355;28;45551;-67
2023/07/21 01:58:13;;;;;;;;;14.67;11.33;;;;;-147.70;100.00;61350.09;5068842;28;46342;-67
2023/07/21 02:00:41;;;;;;;;;12.00;12.00;;;;;-147.70;100.00;61350.09;5070339;28;45247;-67
2023/07/21 02:03:07;;;;;;;;;13.67;13.33;;;;;-147.70;100.00;61350.09;5063204;28;45463;-67
2023/07/21 02:05:34;;;;;;;;;17.67;14.00;;;;;-147.70;100.00;61350.09;5064301;28;45388;-67
2023/07/21 02:07:59;;;;;;;;;17.00;15.67;;;;;-147.70;100.00;61350.09;5072316;28;46567;-67
2023/07/21 02:10:24;;;;;;;;;15.67;13.33;;;;;-147.70;100.00;61350.09;5066944;28;45360;-67
2023/07/21 02:12:50;;;;;;;;;19.00;12.33;;;;;-147.70;100.00;61350.09;5070951;28;45335;-67
2023/07/21 02:15:15;;;;;;;;;18.00;17.33;;;;;-147.70;100.00;61350.09;5072534;28;45526;-67
2023/07/21 02:17:41;;;;;;;;;18.33;16.33;;;;;-147.70;100.00;61350.09;5069538;28;46441;-68
2023/07/21 02:20:09;;;;;;;;;13.33;12.00;;;;;-147.70;100.00;61350.09;5072899;28;45491;-67
2023/07/21 02:22:40;;;;;;;;;18.00;13.33;;;;;-147.70;100.00;61350.09;5078082;28;45530;-67
2023/07/21 02:25:09;;;;;;;;;13.67;12.00;;;;;-147.70;100.00;61350.09;5069690;28;45460;-67
2023/07/21 02:27:34;;;;;;;;;14.67;14.33;;;;;-147.70;100.00;61350.09;5070534;28;47043;-68
2023/07/21 02:30:00;;;;;;;;;12.67;11.67;;;;;-147.70;100.00;61350.09;5068956;28;45551;-67
2023/07/21 02:32:28;;;;;;;;;14.00;11.00;;;;;-147.70;100.00;61350.09;5057948;28;45398;-67
2023/07/21 02:34:53;;;;;;;;;16.00;14.00;;;;;-147.70;100.00;61350.09;5070619;28;45420;-67
2023/07/21 02:37:19;;;;;;;;;14.67;13.67;;;;;-147.70;100.00;61350.09;5070095;28;46270;-67
2023/07/21 02:39:44;;;;;;;;;20.00;15.67;;;;;-147.70;100.00;61350.09;5057329;28;45340;-67
2023/07/21 02:42:09;;;;;;;;;14.00;13.33;;;;;-147.70;100.00;61350.09;5062055;28;45215;-67
2023/07/21 02:44:35;;;;;;;;;12.33;12.33;;;;;-147.70;100.00;61350.09;5068356;28;45544;-67
2023/07/21 02:47:00;;;;;;;;;11.67;10.67;;;;;-147.70;100.00;61350.09;5077986;28;46367;-67
2023/07/21 02:49:25;;;;;;;;;13.67;13.00;;;;;-147.70;100.00;61350.09;5063612;28;45374;-67
2023/07/21 02:51:51;;;;;;;;;13.67;13.67;;;;;-147.70;100.00;61350.09;5077833;28;45519;-67
2023/07/21 02:54:17;;;;;;;;;19.33;13.67;;;;;-147.70;100.00;61350.09;5072709;28;45444;-67
2023/07/21 02:56:43;;;;;;;;;15.67;13.00;;;;;-147.70;100.00;61350.09;5065529;28;45891;-67
2023/07/21 02:59:11;;;;;;;;;14.33;14.00;;;;;-147.70;100.00;61350.09;5073421;28;45408;-67
2023/07/21 03:01:38;;;;;;;;;17.33;13.67;;;;;-147.70;100.00;61350.09;5062831;28;45448;-67
2023/07/21 03:04:05;;;;;;;;;13.00;13.00;;;;;-147.70;100.00;61350.09;5063611;28;45480;-67
2023/07/21 03:06:31;;;;;;;;;17.00;14.67;;;;;-147.70;100.00;61350.09;5065068;28;47113;-67
2023/07/21 03:08:57;;;;;;;;;15.00;15.00;;;;;-147.70;100.00;61350.09;5058514;28;45479;-67
2023/07/21 03:11:23;;;;;;;;;17.00;15.00;;;;;-147.70;100.00;61350.09;5062776;28;45341;-67
2023/07/21 03:13:48;;;;;;;;;12.67;12.67;;;;;-147.70;100.00;61350.09;5076790;28;45379;-67
2023/07/21 03:16:14;;;;;;;;;17.00;15.00;;;;;-147.70;100.00;61350.09;5070928;28;45515;-67
2023/07/21 03:18:39;;;;;;;;;15.00;14.67;;;;;-147.70;100.00;61350.09;5058349;28;45537;-67
2023/07/21 03:21:05;;;;;;;;;11.33;11.00;;;;;-147.70;100.00;61350.09;5061999;28;45467;-67
2023/07/21 03:23:30;;;;;;;;;15.00;13.33;;;;;-147.70;100.00;61350.09;5069702;28;45466;-67
2023/07/21 03:25:56;;;;;;;;;16.67;14.67;;;;;-147.70;100.00;61350.09;5068776;28;45446;-67
2023/07/21 03:28:22;;;;;;;;;16.67;15.67;;;;;-147.70;100.00;61350.09;5076780;28;45587;-68
2023/07/21 03:30:59;;;;;;;;;18.67;14.33;;;;;-147.70;100.00;61350.09;5072408;28;45357;-67
2023/07/21 03:33:25;;;;;;;;;17.67;14.33;;;;;-147.70;100.00;61350.09;5074096;28;45282;-67
2023/07/21 03:35:59;;;;;;;;;17.00;13.00;;;;;-147.70;100.00;61350.09;5063573;28;45901;-67
2023/07/21 03:38:25;;;;;;;;;19.33;12.67;;;;;-147.70;100.00;61350.09;5073171;28;45380;-67
2023/07/21 03:41:05;;;;;;;;;16.33;13.33;;;;;-147.70;100.00;61350.09;5059137;28;45443;-67
2023/07/21 03:43:31;;;;;;;;;14.67;12.33;;;;;-147.70;100.00;61350.09;5056455;28;45329;-68
2023/07/21 03:46:00;;;;;;;;;15.00;13.00;;;;;-147.70;100.00;61350.09;5068087;28;46473;-67
2023/07/21 03:48:27;;;;;;;;;11.67;11.67;;;;;-147.70;100.00;61350.09;5070228;28;45444;-68
2023/07/21 03:51:06;;;;;;;;;12.33;11.67;;;;;-147.70;100.00;61350.09;5056463;28;45412;-68
2023/07/21 03:53:32;;;;;;;;;15.00;14.00;;;;;-147.70;100.00;61350.09;5061885;28;46266;-68
2023/07/21 03:55:58;;;;;;;;;11.33;11.33;;;;;-147.70;100.00;61350.09;5076790;28;47786;-68
2023/07/21 03:58:23;;;;;;;;;14.00;10.67;;;;;-147.70;100.00;61350.09;5076698;28;45636;-68
2023/07/21 04:00:48;;;;;;;;;10.33;10.33;;;;;-147.70;100.00;61350.09;5076422;28;45177;-68
2023/07/21 04:03:14;;;;;;;;;18.33;12.67;;;;;-147.70;100.00;61350.09;5077543;28;45550;-68
2023/07/21 04:05:40;;;;;;;;;10.67;10.00;;;;;-147.70;100.00;61350.09;5079638;28;45572;-68
2023/07/21 04:08:07;;;;;;;;;13.33;11.33;;;;;-147.70;100.00;61350.09;5080138;28;45527;-68
2023/07/21 04:10:32;;;;;;;;;11.67;11.00;;;;;-147.70;100.00;61350.09;5080029;28;45444;-68
2023/07/21 04:12:58;;;;;;;;;16.00;13.33;;;;;-147.70;100.00;61350.09;5075709;28;45469;-68
2023/07/21 04:15:25;;;;;;;;;14.00;11.33;;;;;-147.70;100.00;61350.09;5067401;28;46522;-68
2023/07/21 04:17:51;;;;;;;;;14.33;11.00;;;;;-147.70;100.00;61350.09;5073762;28;45489;-67
2023/07/21 04:20:16;;;;;;;;;12.67;10.67;;;;;-147.70;100.00;61350.09;5076703;28;45472;-68
2023/07/21 04:22:42;;;;;;;;;10.33;10.33;;;;;-147.70;100.00;61350.09;5071663;28;45454;-68
2023/07/21 04:25:07;;;;;;;;;14.00;12.00;;;;;-147.70;100.00;61350.09;5061742;28;47481;-66
2023/07/21 04:27:33;;;;;;;;;11.33;10.33;;;;;-147.70;100.00;61350.09;5079871;28;45332;-67
2023/07/21 04:29:59;;;;;;;;;11.00;10.00;;;;;-147.70;100.00;61350.09;5079699;28;45519;-67
2023/07/21 04:32:24;;;;;;;;;8.67;8.67;;;;;-147.70;100.00;61350.09;5080070;28;45555;-68
2023/07/21 04:34:50;;;;;;;;;13.33;9.67;;;;;-147.70;100.00;61350.09;5080021;28;46112;-68
2023/07/21 04:37:15;;;;;;;;;12.00;11.33;;;;;-147.70;100.00;61350.09;5080039;28;45459;-68
2023/07/21 04:39:40;;;;;;;;;16.67;12.00;;;;;-147.70;100.00;61350.09;5080122;28;45337;-68
2023/07/21 04:42:06;;;;;;;;;21.00;13.33;;;;;-147.70;100.00;61350.09;5079888;28;45412;-68
2023/07/21 04:44:31;;;;;;;;;12.33;10.67;;;;;-147.70;100.00;61350.09;5079766;28;47087;-68
2023/07/21 04:46:57;;;;;;;;;11.33;9.33;;;;;-147.70;100.00;61350.09;5079835;28;45483;-68
2023/07/21 04:49:22;;;;;;;;;11.33;11.33;;;;;-147.70;100.00;61350.09;5071757;28;45243;-68
2023/07/21 04:51:48;;;;;;;;;17.00;14.33;;;;;-147.70;100.00;61350.09;5072947;28;45809;-68
2023/07/21 04:54:13;;;;;;;;;11.67;9.67;;;;;-147.70;100.00;61350.09;5064231;28;45514;-68
2023/07/21 04:56:39;;;;;;;;;9.67;8.67;;;;;-147.70;100.00;61350.09;5067954;28;45490;-68
2023/07/21 04:59:04;;;;;;;;;10.67;9.33;;;;;-147.70;100.00;61350.09;5079830;28;45282;-68
2023/07/21 05:01:31;;;;;;;;;10.00;9.00;;;;;-147.70;100.00;61350.09;5079536;28;45464;-68
2023/07/21 05:03:57;;;;;;;;;8.67;8.67;;;;;-147.70;100.00;61350.09;5079388;28;47027;-68
2023/07/21 05:06:23;;;;;;;;;13.67;12.00;;;;;-147.70;100.00;61350.09;5078906;28;45392;-68
2023/07/21 05:08:48;;;;;;;;;13.33;11.33;;;;;-147.70;100.00;61350.09;5071515;28;45443;-68
2023/07/21 05:11:14;;;;;;;;;13.33;9.67;;;;;-147.70;100.00;61350.09;5077332;28;45430;-68
2023/07/21 05:13:39;;;;;;;;;10.67;9.00;;;;;-147.70;100.00;61350.09;5056424;28;46312;-68
2023/07/21 05:16:05;;;;;;;;;9.67;9.67;;;;;-147.70;100.00;61350.09;5078833;28;45317;-68
2023/07/21 05:18:30;;;;;;;;;15.00;14.00;;;;;-147.70;100.00;61350.09;5079344;28;45485;-68
2023/07/21 05:20:56;;;;;;;;;10.33;10.00;;;;;-147.70;100.00;61350.09;5069628;28;45537;-67
2023/07/21 05:23:21;;;;;;;;;10.33;9.00;;;;;-147.70;100.00;61350.09;5070480;28;46390;-66
2023/07/21 05:25:47;;;;;;;;;8.67;8.67;;;;;-147.70;100.00;61350.09;5071019;28;45289;-68
2023/07/21 05:28:13;;;;;;;;;14.00;9.00;;;;;-147.70;100.00;61350.09;5075841;28;45280;-67
2023/07/21 05:30:42;;;;;;;;;9.67;7.00;;;;;-147.70;100.00;61350.09;5069222;28;45613;-67
2023/07/21 05:33:07;;;;;;;;;5.67;5.33;;;;;-147.70;100.00;61350.09;5064325;28;46276;-67
2023/07/21 05:35:32;;;;;;;;;7.00;7.00;;;;;-147.70;100.00;61350.09;5064073;28;45434;-67
2023/07/21 05:37:58;;;;;;;;;11.00;8.67;;;;;-147.70;100.00;61350.09;5054442;28;45456;-67
2023/07/21 05:40:23;;;;;;;;;7.00;7.00;;;;;-147.70;100.00;61350.09;5078938;28;45356;-67
2023/07/21 05:42:49;;;;;;;;;10.33;8.33;;;;;-147.70;100.00;61350.09;5078976;28;45482;-66
2023/07/21 05:45:14;;;;;;;;;10.33;8.67;;;;;-147.70;100.00;61350.09;5078942;28;45345;-68
2023/07/21 05:47:40;;;;;;;;;6.67;6.67;;;;;-147.70;100.00;61350.09;5078689;28;45705;-68
2023/07/21 05:50:05;;;;;;;;;7.00;6.67;;;;;-147.70;100.00;61350.09;5078901;28;45450;-66
2023/07/21 05:52:31;;;;;;;;;12.67;8.00;;;;;-147.70;100.00;61350.09;5078303;28;45726;-68
2023/07/21 05:54:56;;;;;;;;;8.00;6.67;;;;;-147.70;100.00;61350.09;5077273;28;45377;-67
2023/07/21 05:57:22;;;;;;;;;18.00;15.33;;;;;-147.70;100.00;61350.09;5072753;28;45450;-64
2023/07/21 05:59:48;;;;;;;;;12.67;10.67;;;;;-147.70;100.00;61350.09;5059894;28;45465;-63
2023/07/21 06:02:13;;;;;;;;;11.67;10.33;;;;;-147.70;100.00;61350.09;5068383;27;46304;-63
2023/07/21 06:04:38;;;;;;;;;13.67;9.67;;;;;-147.70;100.00;61350.09;5074600;28;45420;-64
2023/07/21 06:07:04;;;;;;;;;12.67;9.00;;;;;-147.70;100.00;61350.09;5058010;28;45952;-66
2023/07/21 06:09:29;;;;;;;;;10.67;6.00;;;;;-147.70;100.00;61350.09;5078815;28;45444;-62
2023/07/21 06:11:55;;;;;;;;;16.00;15.00;;;;;-147.70;100.00;61350.09;5077499;28;46172;-62
2023/07/21 06:14:20;;;;;;;;;11.33;8.00;;;;;-147.70;100.00;61350.09;5070861;28;45448;-62
2023/07/21 06:16:46;;;;;;;;;10.00;7.67;;;;;-147.70;100.00;61350.09;5075259;28;45380;-61
2023/07/21 06:19:11;;;;;;;;;9.00;7.00;;;;;-147.70;100.00;61350.09;5073648;28;45235;-62
2023/07/21 06:21:37;;;;;;;;;8.33;7.00;;;;;-147.70;100.00;61350.09;5077437;28;46437;-61
2023/07/21 06:24:02;;;;;;;;;10.33;6.67;;;;;-147.70;100.00;61350.09;5077847;28;45360;-61
2023/07/21 06:26:28;;;;;;;;;13.33;9.33;;;;;-147.70;100.00;61350.09;5077223;28;45267;-61
2023/07/21 06:28:54;;;;;;;;;9.67;7.67;;;;;-147.70;100.00;61350.09;5077648;28;45312;-60
2023/07/21 06:31:21;;;;;;;;;11.00;11.00;;;;;-147.70;100.00;61350.09;5075627;28;45435;-62
2023/07/21 06:33:46;;;;;;;;;9.00;8.00;;;;;-147.70;100.00;61350.09;5064137;28;45420;-61
2023/07/21 06:36:11;;;;;;;;;14.33;12.00;;;;;-147.70;100.00;61350.09;5069879;28;45385;-62
2023/07/21 06:38:37;;;;;;;;;8.00;7.00;;;;;-147.70;100.00;61350.09;5068051;28;45420;-60
2023/07/21 06:41:04;;;;;;;;;9.33;7.00;;;;;-147.70;100.00;61350.09;5064610;28;45400;-68
2023/07/21 06:43:30;;;;;;;;;12.00;11.67;;;;;-147.70;100.00;61350.09;5067883;28;45708;-69
2023/07/21 06:45:55;;;;;;;;;9.67;6.00;;;;;-147.70;100.00;61350.09;5060603;28;45393;-71
2023/07/21 06:48:21;;;;;;;;;7.00;6.67;;;;;-147.70;100.00;61350.09;5066190;28;45459;-69
2023/07/21 06:50:47;;;;;;;;;8.67;8.00;;;;;-147.70;100.00;61350.09;5065913;28;46124;-67
2023/07/21 06:53:12;;;;;;;;;8.00;5.00;;;;;-147.70;100.00;61350.09;5066215;28;45557;-69
2023/07/21 06:55:39;;;;;;;;;8.33;7.00;;;;;-147.70;100.00;61350.09;5062432;28;45487;-64
2023/07/21 06:58:04;;;;;;;;;6.33;6.33;;;;;-147.70;100.00;61350.09;5064080;28;45496;-68
2023/07/21 07:00:32;;;;;;;;;10.00;6.67;;;;;-147.70;100.00;61350.09;5065883;28;46384;-68
2023/07/21 07:02:58;;;;;;;;;10.00;7.33;;;;;-147.70;100.00;61350.09;5058146;28;45861;-69
2023/07/21 07:05:23;;;;;;;;;12.33;10.00;;;;;-147.70;100.00;61350.09;5063351;28;45259;-69
2023/07/21 07:07:53;;;;;;;;;11.00;8.00;;;;;-147.70;100.00;61350.09;5067150;28;45552;-68
2023/07/21 07:10:19;;;;;;;;;7.33;7.33;;;;;-147.70;100.00;61350.09;5069471;28;45538;-69
2023/07/21 07:12:44;;;;;;;;;10.33;7.00;;;;;-147.70;100.00;61350.09;5074683;28;45413;-69
2023/07/21 07:15:10;;;;;;;;;7.33;6.33;;;;;-147.70;100.00;61350.09;5069412;28;45534;-70
2023/07/21 07:17:36;;;;;;;;;8.33;8.00;;;;;-147.70;100.00;61350.09;5073164;27;45488;-68
2023/07/21 07:20:03;;;;;;;;;7.67;7.00;;;;;-147.70;100.00;61350.09;5075041;28;45595;-68
2023/07/21 07:22:29;;;;;;;;;9.00;8.67;;;;;-147.70;100.00;61350.09;5076285;28;45415;-68
2023/07/21 07:24:54;;;;;;;;;7.67;7.00;;;;;-147.70;100.00;61350.09;5076466;28;45331;-68
2023/07/21 07:27:19;;;;;;;;;6.33;6.33;;;;;-147.70;100.00;61350.09;5076962;28;45342;-68
2023/07/21 07:29:45;;;;;;;;;9.00;9.00;;;;;-147.70;100.00;61350.09;5067634;27;46651;-69
2023/07/21 07:32:10;;;;;;;;;6.67;5.00;;;;;-147.70;100.00;61350.09;5065025;28;45452;-69
2023/07/21 07:34:36;;;;;;;;;8.00;8.00;;;;;-147.70;100.00;61350.09;5068538;28;45397;-69
2023/07/21 07:37:02;;;;;;;;;11.33;9.33;;;;;-147.70;100.00;61350.09;5065243;28;45424;-69
2023/07/21 07:39:27;;;;;;;;;7.67;7.00;;;;;-147.70;100.00;61350.09;5064630;28;45426;-69
2023/07/21 07:41:53;;;;;;;;;10.67;6.33;;;;;-147.70;100.00;61350.09;5055677;28;45419;-69
2023/07/21 07:44:19;;;;;;;;;10.67;7.33;;;;;-147.70;100.00;61350.09;5065857;28;45963;-68
2023/07/21 07:46:44;;;;;;;;;9.00;8.00;;;;;-147.70;100.00;61350.09;5072184;28;46268;-68
2023/07/21 07:49:09;;;;;;;;;8.00;8.00;;;;;-147.70;100.00;61350.09;5075133;28;46158;-69
2023/07/21 07:51:38;;;;;;;;;7.33;6.67;;;;;-147.70;100.00;61350.09;5066842;28;45577;-68
2023/07/21 07:54:05;;;;;;;;;14.00;10.33;;;;;-147.70;100.00;61350.09;5068906;28;45504;-68
2023/07/21 07:56:31;;;;;;;;;14.00;8.67;;;;;-147.70;100.00;61350.09;5064335;28;45425;-68
2023/07/21 07:58:57;;;;;;;;;12.00;7.33;;;;;-147.70;100.00;61350.09;5062446;28;45549;-68
2023/07/21 08:01:23;;;;;;;;;12.33;10.00;;;;;-147.70;100.00;61350.09;5062496;28;45419;-68
2023/07/21 08:03:49;;;;;;;;;10.00;8.00;;;;;-147.70;100.00;61350.09;5063624;28;45433;-67
2023/07/21 08:06:15;;;;;;;;;17.33;13.67;;;;;-147.70;100.00;61350.09;5064132;28;46201;-69
2023/07/21 08:08:41;;;;;;;;;14.00;8.67;;;;;-147.70;100.00;61350.09;5061725;28;45444;-69
2023/07/21 08:11:07;;;;;;;;;8.33;8.00;;;;;-147.70;100.00;61350.09;5064373;28;45796;-69
2023/07/21 08:13:33;;;;;;;;;14.67;14.67;;;;;-147.70;100.00;61350.09;5059900;28;45451;-69
2023/07/21 08:15:59;;;;;;;;;9.00;8.00;;;;;-147.70;100.00;61350.09;5059791;28;45464;-68
2023/07/21 08:18:24;;;;;;;;;8.67;8.67;;;;;-147.70;100.00;61350.09;5064264;28;45682;-69
2023/07/21 08:20:51;;;;;;;;;8.67;7.00;;;;;-147.70;100.00;61350.09;5060824;28;45495;-68
2023/07/21 08:23:16;;;;;;;;;8.67;7.33;;;;;-147.70;100.00;61350.09;5065087;28;45495;-68
2023/07/21 08:25:41;;;;;;;;;7.33;7.33;;;;;-147.70;100.00;61350.09;5058141;28;45474;-68
2023/07/21 08:28:07;;;;;;;;;7.33;7.00;;;;;-147.70;100.00;61350.09;5064688;28;46368;-68
2023/07/21 08:30:34;;;;;;;;;7.33;7.33;;;;;-147.70;100.00;61350.09;5066918;28;45527;-68
2023/07/21 08:32:59;;;;;;;;;6.00;6.00;;;;;-147.70;100.00;61350.09;5057862;28;45582;-68
2023/07/21 08:35:26;;;;;;;;;8.67;6.00;;;;;-147.70;100.00;61350.09;5069418;28;46299;-68
2023/07/21 08:37:51;;;;;;;;;12.33;10.33;;;;;-147.70;100.00;61350.09;5072516;28;47466;-69
2023/07/21 08:40:19;;;;;;;;;19.67;16.67;;;;;-147.70;100.00;61350.09;5074033;28;45343;-68
2023/07/21 08:42:44;;;;;;;;;9.67;9.67;;;;;-147.70;100.00;61350.09;5065704;28;45507;-68
2023/07/21 08:45:11;;;;;;;;;7.00;5.33;;;;;-147.70;100.00;61350.09;5063878;28;45461;-69
2023/07/21 08:47:37;;;;;;;;;11.00;8.67;;;;;-147.70;100.00;61350.09;5064455;28;47381;-68
2023/07/21 08:50:04;;;;;;;;;7.00;5.33;;;;;-147.70;100.00;61350.09;5065571;28;45435;-68
2023/07/21 08:52:31;;;;;;;;;6.00;4.00;;;;;-147.70;100.00;61350.09;5067412;28;45229;-68
2023/07/21 08:54:56;;;;;;;;;8.00;6.00;;;;;-147.70;100.00;61350.09;5059562;28;45540;-68
2023/07/21 08:57:22;;;;;;;;;6.67;6.33;;;;;-147.70;100.00;61350.09;5072896;28;46519;-68
2023/07/21 08:59:49;;;;;;;;;7.00;7.00;;;;;-147.70;100.00;61350.09;5068816;28;45493;-68
2023/07/21 09:02:15;;;;;;;;;7.33;7.33;;;;;-147.70;100.00;61350.09;5070109;28;45428;-68
2023/07/21 09:04:44;;;;;;;;;6.33;6.33;;;;;-147.70;100.00;61350.09;5070133;28;46319;-68
2023/07/21 09:07:10;;;;;;;;;8.00;7.00;;;;;-147.70;100.00;61350.09;5077906;28;47414;-68
2023/07/21 09:09:35;;;;;;;;;8.67;7.00;;;;;-147.70;100.00;61350.09;5077398;28;45435;-68
2023/07/21 09:12:08;;;;;;;;;3.67;3.67;;;;;-147.70;100.00;61350.09;5077852;28;45622;-68
2023/07/21 09:14:39;;;;;;;;;9.00;6.00;;;;;-147.70;100.00;61350.09;5077937;28;45424;-69
2023/07/21 09:17:06;;;;;;;;;9.00;8.67;;;;;-147.70;100.00;61350.09;5074839;28;47257;-69
2023/07/21 09:19:45;;;;;;;;;9.33;7.33;;;;;-147.70;100.00;61350.09;5077520;28;45419;-68
2023/07/21 09:22:11;;;;;;;;;12.00;10.67;;;;;-147.70;100.00;61350.09;5077879;28;46339;-70
2023/07/21 09:24:48;;;;;;;;;17.33;13.00;;;;;-147.70;100.00;61350.09;5077171;28;45539;-69
2023/07/21 09:27:15;;;;;;;;;10.00;10.00;;;;;-147.70;100.00;61350.09;5077056;28;46287;-70
2023/07/21 09:29:42;;;;;;;;;16.33;13.33;;;;;-147.70;100.00;61350.09;5076509;28;45359;-70
2023/07/21 09:32:12;;;;;;;;;49.33;40.00;;;;;-147.70;100.00;61350.09;5072656;28;45411;-69
2023/07/21 09:34:56;;;;;;;;;16.00;13.67;;;;;-147.70;100.00;61350.09;5076572;28;45500;-70
2023/07/21 09:37:25;;;;;;;;;15.00;13.67;;;;;-147.70;100.00;61350.09;5076743;28;46524;-69
2023/07/21 09:39:52;;;;;;;;;14.67;13.00;;;;;-147.70;100.00;61350.09;5077737;28;46370;-69
2023/07/21 09:42:21;;;;;;;;;14.67;14.00;;;;;-147.70;100.00;61350.09;5077228;28;45373;-69
2023/07/21 09:44:48;;;;;;;;;10.33;9.67;;;;;-147.70;100.00;61350.09;5077381;28;45428;-69
2023/07/21 09:47:16;;;;;;;;;16.00;14.50;;;;;-147.70;100.00;61350.09;5076586;28;45477;-69
2023/07/21 09:49:41;;;;;;;;;10.00;10.00;;;;;-147.70;100.00;61350.09;5077153;28;45525;-69
2023/07/21 09:52:10;;;;;;;;;14.33;12.00;;;;;-147.70;100.00;61350.09;5076888;28;45430;-69
2023/07/21 09:54:39;;;;;;;;;15.33;15.33;;;;;-147.70;100.00;61350.09;5076820;28;45151;-69
2023/07/21 09:57:06;;;;;;;;;15.00;13.67;;;;;-147.70;100.00;61350.09;5076121;28;45396;-68
2023/07/21 09:59:34;;;;;;;;;16.00;11.67;;;;;-147.70;100.00;61350.09;5075193;28;45551;-68
2023/07/21 10:02:01;;;;;;;;;11.67;10.33;;;;;-147.70;100.00;61350.09;5075305;28;45447;-67
2023/07/21 10:04:28;;;;;;;;;9.00;9.00;;;;;-147.70;100.00;61350.09;5076505;28;45504;-68
2023/07/21 10:06:58;;;;;;;;;8.00;8.00;;;;;-147.70;100.00;61350.09;5047181;28;46415;-68
2023/07/21 10:09:26;;;;;;;;;12.33;10.33;;;;;-147.70;100.00;61350.09;5044652;28;45703;-69
2023/07/21 10:11:52;;;;;;;;;10.67;9.00;;;;;-147.70;100.00;61350.09;5045788;28;45465;-69
2023/07/21 10:14:33;;;;;;;;;9.33;8.00;;;;;-147.70;100.00;61350.09;5045478;28;45646;-69
2023/07/21 10:16:59;;;;;;;;;10.33;9.33;;;;;-147.70;100.00;61350.09;5047327;28;46628;-69
2023/07/21 10:19:28;;;;;;;;;10.33;9.33;;;;;-147.70;100.00;61350.09;5046299;28;45523;-69
2023/07/21 10:21:54;;;;;;;;;9.67;9.67;;;;;-147.70;100.00;61350.09;5045773;28;45516;-68
2023/07/21 10:24:24;;;;;;;;;18.67;14.00;;;;;-147.70;100.00;61350.09;5044716;28;45484;-68
2023/07/21 10:26:56;;;;;;;;;13.33;11.33;;;;;-147.70;100.00;61350.09;5042065;28;47481;-67
2023/07/21 10:29:21;;;;;;;;;11.67;10.00;;;;;-147.70;100.00;61350.09;5046885;28;45423;-68
2023/07/21 10:31:55;;;;;;;;;18.33;16.33;;;;;-147.70;100.00;61350.09;5047898;28;45734;-68
2023/07/21 10:34:31;;;;;;;;;12.67;11.67;;;;;-147.70;100.00;61350.09;5043835;28;45452;-68
2023/07/21 10:37:01;;;;;;;;;16.67;15.00;;;;;-147.70;100.00;61350.09;5045107;28;45423;-68
2023/07/21 10:39:31;;;;;;;;;11.67;10.67;;;;;-147.70;100.00;61350.09;5041541;28;45640;-67
2023/07/21 10:41:58;;;;;;;;;10.33;9.00;;;;;-147.70;100.00;61350.09;5043495;28;45409;-67
2023/07/21 10:44:32;;;;;;;;;10.00;9.33;;;;;-147.70;100.00;61350.09;5043864;28;45575;-67
2023/07/21 10:46:57;;;;;;;;;8.33;8.33;;;;;-147.70;100.00;61350.09;5046102;28;46323;-68
2023/07/21 10:49:22;;;;;;;;;10.33;10.33;;;;;-147.70;100.00;61350.09;5044081;28;45519;-68
2023/07/21 10:51:49;;;;;;;;;9.67;9.00;;;;;-147.70;100.00;61350.09;5044803;28;45444;-68
2023/07/21 10:54:16;;;;;;;;;11.00;10.00;;;;;-147.70;100.00;61350.09;5043438;28;45567;-67
2023/07/21 10:56:44;;;;;;;;;8.67;8.67;;;;;-147.70;100.00;61350.09;5043025;28;45574;-69